createdAt,value
2024-01-11T00:00:20.894Z,99419.09
2024-01-11T00:01:24.692Z,99420.53
2024-01-11T00:02:27.957Z,99417.34
2024-01-11T00:03:31.527Z,99413.81
2024-01-11T00:04:34.810Z,99416.06
2024-01-11T00:05:38.074Z,99419.56
2024-01-11T00:06:45.836Z,99420.19
2024-01-11T00:07:49.682Z,99418.78
2024-01-11T00:08:52.833Z,99411.25
2024-01-11T00:09:55.720Z,99412.22
2024-01-11T00:10:58.831Z,99412.22
2024-01-11T00:12:01.771Z,99416.53
2024-01-11T00:13:05.499Z,99419.56
2024-01-11T00:14:08.806Z,99417.50
2024-01-11T00:15:12.164Z,99413.84
2024-01-11T00:16:14.933Z,99417.34
2024-01-11T00:17:18.394Z,99416.88
2024-01-11T00:18:21.976Z,99410.78
2024-01-11T00:19:25.551Z,99413.03
2024-01-11T00:20:28.588Z,99411.91
2024-01-11T00:21:31.871Z,99409.34
2024-01-11T00:22:35.349Z,99408.75
2024-01-11T00:23:38.623Z,99416.22
2024-01-11T00:24:42.665Z,99410.97
2024-01-11T00:25:45.717Z,99413.66
2024-01-11T00:26:48.720Z,99401.34
2024-01-11T00:27:51.859Z,99406.31
2024-01-11T00:28:55.388Z,99411.75
2024-01-11T00:29:59.455Z,99404.72
2024-01-11T00:31:02.649Z,99408.41
2024-01-11T00:32:06.290Z,99415.09
2024-01-11T00:33:10.834Z,99407.44
2024-01-11T00:34:13.934Z,99404.41
2024-01-11T00:35:17.253Z,99408.22
2024-01-11T00:36:23.849Z,99403.62
2024-01-11T00:37:27.011Z,99407.75
2024-01-11T00:38:29.783Z,99408.72
2024-01-11T00:39:33.507Z,99404.09
2024-01-11T00:40:36.373Z,99404.88
2024-01-11T00:41:39.688Z,99403.44
2024-01-11T00:42:42.584Z,99404.09
2024-01-11T00:43:45.554Z,99404.88
2024-01-11T00:44:48.715Z,99400.41
2024-01-11T00:45:51.851Z,99400.59
2024-01-11T00:46:54.965Z,99400.09
2024-01-11T00:47:58.189Z,99401.06
2024-01-11T00:49:01.346Z,99394.03
2024-01-11T00:50:06.585Z,99387.62
2024-01-11T00:51:09.705Z,99399.47
2024-01-11T00:52:15.316Z,99393.25
2024-01-11T00:53:18.471Z,99389.72
2024-01-11T00:54:21.570Z,99396.41
2024-01-11T00:55:25.846Z,99387.81
2024-01-11T00:56:29.175Z,99389.72
2024-01-11T00:57:32.216Z,99386.53
2024-01-11T00:58:35.007Z,99381.56
2024-01-11T00:59:37.992Z,99381.56
2024-01-11T01:00:41.207Z,99390.53
2024-01-11T01:01:51.014Z,99385.72
2024-01-11T01:02:55.288Z,99383.03
2024-01-11T01:03:59.268Z,99380.78
2024-01-11T01:05:02.211Z,99379.00
2024-01-11T01:06:06.256Z,99368.03
2024-01-11T01:07:09.253Z,99372.31
2024-01-11T01:08:12.156Z,99375.50
2024-01-11T01:09:15.261Z,99366.72
2024-01-11T01:10:18.375Z,99368.81
2024-01-11T01:11:21.314Z,99367.38
2024-01-11T01:12:26.568Z,99368.81
2024-01-11T01:13:29.390Z,99371.84
2024-01-11T01:14:32.595Z,99368.97
2024-01-11T01:15:35.479Z,99367.87
2024-01-11T01:16:38.363Z,99363.72
2024-01-11T01:17:41.321Z,99368.50
2024-01-11T01:18:44.698Z,99366.91
2024-01-11T01:19:47.532Z,99363.69
2024-01-11T01:20:50.750Z,99369.31
2024-01-11T01:21:53.872Z,99359.72
2024-01-11T01:22:56.846Z,99362.75
2024-01-11T01:24:00.060Z,99362.91
2024-01-11T01:25:02.968Z,99355.22
2024-01-11T01:26:07.729Z,99352.84
2024-01-11T01:27:10.866Z,99353.97
2024-01-11T01:28:13.852Z,99346.63
2024-01-11T01:29:17.305Z,99350.31
2024-01-11T01:30:21.902Z,99351.88
2024-01-11T01:31:25.009Z,99350.63
2024-01-11T01:32:27.915Z,99346.78
2024-01-11T01:33:31.316Z,99345.66
2024-01-11T01:34:34.489Z,99346.00
2024-01-11T01:35:38.287Z,99341.69
2024-01-11T01:36:41.909Z,99338.50
2024-01-11T01:37:45.093Z,99339.13
2024-01-11T01:38:48.145Z,99342.00
2024-01-11T01:39:51.455Z,99340.56
2024-01-11T01:40:54.372Z,99343.28
2024-01-11T01:41:57.332Z,99323.81
2024-01-11T01:43:03.532Z,99332.44
2024-01-11T01:44:07.433Z,99325.22
2024-01-11T01:45:10.395Z,99337.84
2024-01-11T01:46:20.869Z,99332.75
2024-01-11T01:47:24.685Z,99337.06
2024-01-11T01:48:29.284Z,99336.41
2024-01-11T01:49:33.041Z,99330.50
2024-01-11T01:50:36.432Z,99325.72
2024-01-11T01:51:41.120Z,99335.16
2024-01-11T01:52:45.713Z,99321.56
2024-01-11T01:53:50.223Z,99322.53
2024-01-11T01:54:53.326Z,99322.84
2024-01-11T01:55:56.709Z,99319.50
2024-01-11T01:57:00.985Z,99318.38
2024-01-11T01:58:05.701Z,99316.78
2024-01-11T01:59:11.957Z,99320.78
2024-01-11T02:00:15.996Z,99312.16
2024-01-11T02:01:22.646Z,99315.50
2024-01-11T02:02:26.213Z,99314.22
2024-01-11T02:03:30.029Z,99313.72
2024-01-11T02:04:33.740Z,99314.56
2024-01-11T02:05:37.464Z,99314.56
2024-01-11T02:06:41.608Z,99311.34
2024-01-11T02:07:45.403Z,99313.28
2024-01-11T02:08:49.526Z,99308.16
2024-01-11T02:09:53.551Z,99304.19
2024-01-11T02:10:58.029Z,99306.91
2024-01-11T02:12:02.099Z,99306.06
2024-01-11T02:13:08.301Z,99296.38
2024-01-11T02:14:13.124Z,99302.09
2024-01-11T02:15:16.223Z,99296.34
2024-01-11T02:16:19.324Z,99297.16
2024-01-11T02:17:22.488Z,99294.63
2024-01-11T02:18:25.418Z,99295.72
2024-01-11T02:19:28.410Z,99287.56
2024-01-11T02:20:31.459Z,99284.37
2024-01-11T02:21:35.679Z,99290.13
2024-01-11T02:22:42.811Z,99283.44
2024-01-11T02:24:04.349Z,99286.94
2024-01-11T02:25:07.892Z,99280.56
2024-01-11T02:26:11.140Z,99284.56
2024-01-11T02:27:14.118Z,99283.91
2024-01-11T02:28:17.298Z,99276.56
2024-01-11T02:29:20.536Z,99280.38
2024-01-11T02:30:23.576Z,99280.06
2024-01-11T02:31:27.087Z,99276.41
2024-01-11T02:32:30.047Z,99285.34
2024-01-11T02:33:32.948Z,99276.09
2024-01-11T02:34:36.986Z,99271.78
2024-01-11T02:35:45.246Z,99274.16
2024-01-11T02:36:51.468Z,99270.66
2024-01-11T02:37:54.925Z,99271.13
2024-01-11T02:38:58.385Z,99270.81
2024-01-11T02:40:01.254Z,99272.25
2024-01-11T02:41:04.865Z,99270.97
2024-01-11T02:42:07.979Z,99268.25
2024-01-11T02:43:11.943Z,99266.69
2024-01-11T02:44:15.058Z,99264.59
2024-01-11T02:45:20.156Z,99260.59
2024-01-11T02:46:23.361Z,99255.50
2024-01-11T02:47:26.672Z,99265.06
2024-01-11T02:48:32.765Z,99267.44
2024-01-11T02:49:37.435Z,99254.50
2024-01-11T02:50:40.644Z,99263.28
2024-01-11T02:51:43.964Z,99260.28
2024-01-11T02:52:46.815Z,99255.44
2024-01-11T02:53:50.064Z,99254.97
2024-01-11T02:54:53.006Z,99260.41
2024-01-11T02:55:56.157Z,99255.44
2024-01-11T02:57:00.326Z,99248.41
2024-01-11T02:58:03.550Z,99253.87
2024-01-11T02:59:06.774Z,99250.34
2024-01-11T03:00:10.115Z,99245.69
2024-01-11T03:01:13.029Z,99242.97
2024-01-11T03:02:16.165Z,99242.66
2024-01-11T03:03:19.084Z,99247.00
2024-01-11T03:04:22.142Z,99247.66
2024-01-11T03:05:25.118Z,99247.50
2024-01-11T03:06:28.366Z,99248.91
2024-01-11T03:07:31.822Z,99250.06
2024-01-11T03:08:35.200Z,99247.31
2024-01-11T03:09:38.374Z,99238.84
2024-01-11T03:10:41.171Z,99237.75
2024-01-11T03:11:44.218Z,99235.19
2024-01-11T03:12:48.281Z,99238.53
2024-01-11T03:13:51.472Z,99235.66
2024-01-11T03:14:54.440Z,99230.97
2024-01-11T03:15:58.757Z,99242.75
2024-01-11T03:17:01.598Z,99237.19
2024-01-11T03:18:05.261Z,99231.78
2024-01-11T03:19:09.162Z,99235.72
2024-01-11T03:20:12.574Z,99233.00
2024-01-11T03:21:15.683Z,99230.63
2024-01-11T03:22:18.835Z,99225.34
2024-01-11T03:23:21.577Z,99226.97
2024-01-11T03:24:24.429Z,99224.91
2024-01-11T03:25:27.443Z,99225.22
2024-01-11T03:26:30.509Z,99220.12
2024-01-11T03:27:34.144Z,99223.19
2024-01-11T03:28:37.488Z,99216.97
2024-01-11T03:29:40.684Z,99225.41
2024-01-11T03:30:44.466Z,99221.72
2024-01-11T03:31:47.280Z,99213.56
2024-01-11T03:32:50.560Z,99215.53
2024-01-11T03:33:53.998Z,99217.28
2024-01-11T03:34:57.244Z,99212.78
2024-01-11T03:36:00.635Z,99214.53
2024-01-11T03:37:03.551Z,99212.78
2024-01-11T03:38:06.996Z,99213.34
2024-01-11T03:39:10.164Z,99211.75
2024-01-11T03:40:13.442Z,99215.13
2024-01-11T03:41:16.731Z,99205.41
2024-01-11T03:42:20.646Z,99210.34
2024-01-11T03:43:23.914Z,99207.78
2024-01-11T03:44:26.847Z,99205.41
2024-01-11T03:45:29.971Z,99201.53
2024-01-11T03:46:33.197Z,99205.34
2024-01-11T03:47:36.056Z,99194.50
2024-01-11T03:48:39.506Z,99200.25
2024-01-11T03:49:42.666Z,99201.88
2024-01-11T03:50:46.263Z,99204.31
2024-01-11T03:51:49.375Z,99196.97
2024-01-11T03:52:52.640Z,99193.56
2024-01-11T03:53:55.624Z,99189.78
2024-01-11T03:54:58.785Z,99188.47
2024-01-11T03:56:01.874Z,99190.44
2024-01-11T03:57:04.845Z,99184.87
2024-01-11T03:58:07.670Z,99186.75
2024-01-11T03:59:12.152Z,99186.13
2024-01-11T04:00:15.798Z,99180.38
2024-01-11T04:01:19.079Z,99181.97
2024-01-11T04:02:22.345Z,99186.44
2024-01-11T04:03:25.307Z,99191.44
2024-01-11T04:04:28.935Z,99188.75
2024-01-11T04:05:32.261Z,99185.56
2024-01-11T04:06:35.268Z,99185.03
2024-01-11T04:07:38.490Z,99181.88
2024-01-11T04:08:41.423Z,99182.66
2024-01-11T04:09:44.618Z,99186.13
2024-01-11T04:10:47.789Z,99185.53
2024-01-11T04:11:51.004Z,99183.09
2024-01-11T04:12:53.836Z,99186.00
2024-01-11T04:13:57.097Z,99182.47
2024-01-11T04:15:00.257Z,99189.66
2024-01-11T04:16:06.886Z,99186.94
2024-01-11T04:17:10.199Z,99185.66
2024-01-11T04:18:13.485Z,99189.78
2024-01-11T04:19:18.127Z,99188.34
2024-01-11T04:20:22.651Z,99188.53
2024-01-11T04:21:32.060Z,99193.13
2024-01-11T04:22:34.829Z,99190.12
2024-01-11T04:23:37.968Z,99192.81
2024-01-11T04:24:44.297Z,99189.66
2024-01-11T04:25:47.162Z,99184.69
2024-01-11T04:26:50.228Z,99182.25
2024-01-11T04:27:54.761Z,99185.31
2024-01-11T04:29:00.540Z,99175.78
2024-01-11T04:30:04.113Z,99183.25
2024-01-11T04:31:06.973Z,99188.09
2024-01-11T04:32:10.484Z,99191.56
2024-01-11T04:33:13.536Z,99184.87
2024-01-11T04:34:16.750Z,99186.63
2024-01-11T04:35:19.667Z,99184.69
2024-01-11T04:36:22.956Z,99191.88
2024-01-11T04:37:26.192Z,99190.31
2024-01-11T04:38:29.477Z,99191.56
2024-01-11T04:39:33.080Z,99192.56
2024-01-11T04:40:36.304Z,99188.88
2024-01-11T04:41:40.929Z,99186.00
2024-01-11T04:42:44.052Z,99186.13
2024-01-11T04:43:46.876Z,99185.84
2024-01-11T04:44:50.058Z,99184.75
2024-01-11T04:45:53.505Z,99182.16
2024-01-11T04:46:56.291Z,99179.13
2024-01-11T04:47:59.626Z,99187.78
2024-01-11T04:49:02.611Z,99182.69
2024-01-11T04:50:06.682Z,99181.75
2024-01-11T04:51:10.223Z,99175.03
2024-01-11T04:52:13.779Z,99180.63
2024-01-11T04:53:17.021Z,99184.13
2024-01-11T04:54:20.275Z,99182.03
2024-01-11T04:55:23.380Z,99172.97
2024-01-11T04:56:26.287Z,99177.44
2024-01-11T04:57:29.544Z,99172.66
2024-01-11T04:58:32.750Z,99174.44
2024-01-11T04:59:36.223Z,99181.59
2024-01-11T05:00:39.484Z,99183.22
2024-01-11T05:01:43.314Z,99184.47
2024-01-11T05:02:47.052Z,99179.88
2024-01-11T05:03:50.766Z,99182.91
2024-01-11T05:04:53.538Z,99180.00
2024-01-11T05:05:56.871Z,99175.56
2024-01-11T05:07:00.108Z,99175.88
2024-01-11T05:08:03.230Z,99177.50
2024-01-11T05:09:06.382Z,99174.62
2024-01-11T05:10:09.422Z,99172.41
2024-01-11T05:11:19.177Z,99170.34
2024-01-11T05:12:22.017Z,99173.53
2024-01-11T05:13:25.444Z,99172.53
2024-01-11T05:14:28.542Z,99178.75
2024-01-11T05:15:31.453Z,99170.63
2024-01-11T05:16:36.928Z,99173.81
2024-01-11T05:17:40.335Z,99174.62
2024-01-11T05:18:43.352Z,99177.97
2024-01-11T05:19:46.991Z,99170.00
2024-01-11T05:20:50.212Z,99175.25
2024-01-11T05:21:53.257Z,99170.66
2024-01-11T05:22:56.666Z,99170.78
2024-01-11T05:23:59.832Z,99171.59
2024-01-11T05:25:03.627Z,99172.72
2024-01-11T05:26:07.152Z,99168.88
2024-01-11T05:27:10.331Z,99173.47
2024-01-11T05:28:13.334Z,99161.50
2024-01-11T05:29:16.109Z,99171.88
2024-01-11T05:30:19.136Z,99167.25
2024-01-11T05:31:23.488Z,99169.81
2024-01-11T05:32:26.704Z,99177.19
2024-01-11T05:33:29.979Z,99170.97
2024-01-11T05:34:33.361Z,99175.56
2024-01-11T05:35:36.651Z,99176.53
2024-01-11T05:36:39.639Z,99172.69
2024-01-11T05:37:43.339Z,99175.56
2024-01-11T05:38:46.832Z,99176.00
2024-01-11T05:39:49.741Z,99177.59
2024-01-11T05:40:52.801Z,99176.47
2024-01-11T05:41:56.266Z,99182.53
2024-01-11T05:42:59.365Z,99177.44
2024-01-11T05:44:02.601Z,99174.72
2024-01-11T05:45:06.958Z,99177.78
2024-01-11T05:46:09.857Z,99173.13
2024-01-11T05:47:13.108Z,99175.56
2024-01-11T05:48:18.747Z,99169.34
2024-01-11T05:49:22.916Z,99167.25
2024-01-11T05:50:26.176Z,99163.75
2024-01-11T05:51:29.211Z,99168.38
2024-01-11T05:52:32.639Z,99163.94
2024-01-11T05:53:37.331Z,99164.25
2024-01-11T05:54:40.472Z,99167.47
2024-01-11T05:55:43.902Z,99174.50
2024-01-11T05:56:47.331Z,99167.47
2024-01-11T05:57:50.607Z,99182.78
2024-01-11T05:58:53.446Z,99174.50
2024-01-11T05:59:56.693Z,99177.69
2024-01-11T06:01:00.860Z,99172.75
2024-01-11T06:02:04.314Z,99180.25
2024-01-11T06:03:07.440Z,99167.31
2024-01-11T06:04:10.611Z,99172.41
2024-01-11T06:05:16.775Z,99170.81
2024-01-11T06:06:20.362Z,99177.84
2024-01-11T06:07:23.592Z,99173.06
2024-01-11T06:08:26.961Z,99175.63
2024-01-11T06:09:30.004Z,99170.84
2024-01-11T06:10:33.120Z,99174.50
2024-01-11T06:11:36.395Z,99171.16
2024-01-11T06:12:39.563Z,99170.50
2024-01-11T06:13:43.126Z,99175.78
2024-01-11T06:14:46.301Z,99174.03
2024-01-11T06:15:49.194Z,99166.38
2024-01-11T06:16:52.316Z,99173.69
2024-01-11T06:17:55.780Z,99170.66
2024-01-11T06:18:59.403Z,99161.75
2024-01-11T06:20:02.454Z,99160.44
2024-01-11T06:21:05.893Z,99158.69
2024-01-11T06:22:08.764Z,99164.09
2024-01-11T06:23:12.024Z,99156.13
2024-01-11T06:24:15.144Z,99152.12
2024-01-11T06:25:18.584Z,99158.50
2024-01-11T06:26:21.765Z,99159.94
2024-01-11T06:27:24.849Z,99159.94
2024-01-11T06:28:27.640Z,99147.81
2024-01-11T06:29:30.590Z,99153.56
2024-01-11T06:30:34.059Z,99155.78
2024-01-11T06:31:37.324Z,99154.16
2024-01-11T06:32:40.627Z,99157.03
2024-01-11T06:33:44.736Z,99157.81
2024-01-11T06:34:48.928Z,99153.84
2024-01-11T06:35:52.192Z,99154.94
2024-01-11T06:36:58.670Z,99148.41
2024-01-11T06:38:02.120Z,99155.31
2024-01-11T06:39:05.541Z,99162.47
2024-01-11T06:40:09.950Z,99161.22
2024-01-11T06:41:13.209Z,99162.47
2024-01-11T06:42:16.455Z,99159.00
2024-01-11T06:43:19.780Z,99158.16
2024-01-11T06:44:23.130Z,99160.41
2024-01-11T06:45:26.354Z,99161.53
2024-01-11T06:46:29.563Z,99157.53
2024-01-11T06:47:32.595Z,99149.91
2024-01-11T06:48:36.033Z,99146.34
2024-01-11T06:49:42.596Z,99146.81
2024-01-11T06:50:45.783Z,99149.38
2024-01-11T06:51:49.065Z,99150.22
2024-01-11T06:52:51.892Z,99154.16
2024-01-11T06:53:55.487Z,99157.88
2024-01-11T06:54:58.696Z,99159.00
2024-01-11T06:56:01.905Z,99149.88
2024-01-11T06:57:05.175Z,99158.00
2024-01-11T06:58:08.053Z,99157.03
2024-01-11T06:59:10.969Z,99146.03
2024-01-11T07:00:14.919Z,99145.09
2024-01-11T07:01:18.663Z,99152.28
2024-01-11T07:02:21.661Z,99153.69
2024-01-11T07:03:24.608Z,99155.44
2024-01-11T07:04:28.781Z,99160.56
2024-01-11T07:05:33.444Z,99155.00
2024-01-11T07:06:36.722Z,99159.59
2024-01-11T07:07:39.760Z,99155.47
2024-01-11T07:08:42.690Z,99153.91
2024-01-11T07:09:46.140Z,99153.56
2024-01-11T07:10:51.804Z,99149.59
2024-01-11T07:11:54.951Z,99149.69
2024-01-11T07:12:57.780Z,99152.59
2024-01-11T07:14:00.935Z,99154.03
2024-01-11T07:15:06.336Z,99153.25
2024-01-11T07:16:09.142Z,99156.25
2024-01-11T07:17:12.191Z,99155.31
2024-01-11T07:18:16.022Z,99155.78
2024-01-11T07:19:19.262Z,99156.91
2024-01-11T07:20:22.672Z,99153.06
2024-01-11T07:21:32.803Z,99149.88
2024-01-11T07:22:37.845Z,99147.66
2024-01-11T07:23:43.131Z,99143.94
2024-01-11T07:24:46.049Z,99148.41
2024-01-11T07:25:49.227Z,99149.69
2024-01-11T07:26:52.438Z,99145.69
2024-01-11T07:27:55.681Z,99140.72
2024-01-11T07:28:59.136Z,99141.19
2024-01-11T07:30:03.749Z,99146.13
2024-01-11T07:31:07.458Z,99146.63
2024-01-11T07:32:10.718Z,99150.78
2024-01-11T07:33:14.036Z,99154.13
2024-01-11T07:34:17.303Z,99153.16
2024-01-11T07:35:21.738Z,99158.09
2024-01-11T07:36:24.863Z,99155.81
2024-01-11T07:37:29.282Z,99161.56
2024-01-11T07:38:32.461Z,99152.00
2024-01-11T07:39:36.924Z,99150.69
2024-01-11T07:41:43.685Z,99145.53
2024-01-11T07:42:47.568Z,99147.13
2024-01-11T07:43:54.433Z,99146.63
2024-01-11T07:44:58.468Z,99147.44
2024-01-11T07:46:01.705Z,99147.91
2024-01-11T07:47:04.673Z,99143.28
2024-01-11T07:48:08.121Z,99135.28
2024-01-11T07:49:11.666Z,99141.31
2024-01-11T07:50:14.687Z,99144.19
2024-01-11T07:51:17.814Z,99134.59
2024-01-11T07:52:21.639Z,99138.91
2024-01-11T07:53:25.071Z,99141.75
2024-01-11T07:54:28.179Z,99141.41
2024-01-11T07:55:31.584Z,99139.19
2024-01-11T07:56:34.867Z,99143.38
2024-01-11T07:57:41.086Z,99140.19
2024-01-11T07:58:46.001Z,99134.28
2024-01-11T07:59:49.904Z,99139.66
2024-01-11T08:00:53.536Z,99138.38
2024-01-11T08:01:56.838Z,99142.00
2024-01-11T08:02:59.806Z,99139.56
2024-01-11T08:04:04.401Z,99130.88
2024-01-11T08:05:08.307Z,99128.94
2024-01-11T08:06:11.422Z,99128.25
2024-01-11T08:07:14.746Z,99127.22
2024-01-11T08:08:18.739Z,99134.22
2024-01-11T08:09:21.974Z,99134.59
2024-01-11T08:10:24.793Z,99123.47
2024-01-11T08:11:30.007Z,99125.50
2024-01-11T08:12:34.235Z,99129.12
2024-01-11T08:13:39.306Z,99126.16
2024-01-11T08:14:43.472Z,99125.13
2024-01-11T08:15:46.472Z,99124.41
2024-01-11T08:16:49.558Z,99120.47
2024-01-11T08:17:52.842Z,99118.69
2024-01-11T08:18:56.000Z,99118.34
2024-01-11T08:19:59.352Z,99120.19
2024-01-11T08:21:02.790Z,99109.13
2024-01-11T08:22:05.852Z,99111.84
2024-01-11T08:23:08.709Z,99104.28
2024-01-11T08:24:12.709Z,99112.94
2024-01-11T08:25:16.012Z,99108.72
2024-01-11T08:26:23.385Z,99105.28
2024-01-11T08:27:26.550Z,99099.50
2024-01-11T08:28:29.402Z,99098.69
2024-01-11T08:29:32.520Z,99094.47
2024-01-11T08:30:35.752Z,99097.34
2024-01-11T08:31:40.332Z,99097.09
2024-01-11T08:32:43.912Z,99099.53
2024-01-11T08:33:47.311Z,99098.66
2024-01-11T08:34:50.719Z,99095.94
2024-01-11T08:35:53.957Z,99101.13
2024-01-11T08:36:57.124Z,99091.06
2024-01-11T08:38:00.551Z,99101.97
2024-01-11T08:39:07.248Z,99098.41
2024-01-11T08:40:11.138Z,99101.59
2024-01-11T08:41:14.471Z,99100.75
2024-01-11T08:42:17.552Z,99087.22
2024-01-11T08:43:20.716Z,99092.72
2024-01-11T08:44:23.852Z,99101.41
2024-01-11T08:45:27.067Z,99094.44
2024-01-11T08:46:32.202Z,99097.16
2024-01-11T08:47:36.558Z,99090.78
2024-01-11T08:48:39.890Z,99103.75
2024-01-11T08:49:43.030Z,99091.31
2024-01-11T08:50:46.385Z,99086.41
2024-01-11T08:51:49.354Z,99085.59
2024-01-11T08:52:52.520Z,99092.06
2024-01-11T08:53:55.365Z,99083.34
2024-01-11T08:54:58.400Z,99088.34
2024-01-11T08:56:01.339Z,99094.97
2024-01-11T08:57:04.853Z,99089.44
2024-01-11T08:58:08.327Z,99094.13
2024-01-11T08:59:11.298Z,99089.97
2024-01-11T09:00:19.135Z,99087.00
2024-01-11T09:01:23.798Z,99092.34
2024-01-11T09:02:27.766Z,99093.56
2024-01-11T09:03:31.227Z,99089.06
2024-01-11T09:04:34.605Z,99091.31
2024-01-11T09:05:37.710Z,99092.25
2024-01-11T09:06:41.560Z,99092.63
2024-01-11T09:07:44.934Z,99095.81
2024-01-11T09:08:47.791Z,99093.22
2024-01-11T09:09:56.641Z,99088.09
2024-01-11T09:11:01.417Z,99084.97
2024-01-11T09:12:05.479Z,99086.41
2024-01-11T09:13:09.398Z,99085.44
2024-01-11T09:14:14.392Z,99081.94
2024-01-11T09:15:17.430Z,99083.06
2024-01-11T09:16:20.394Z,99084.25
2024-01-11T09:17:23.610Z,99078.53
2024-01-11T09:18:26.772Z,99089.66
2024-01-11T09:19:30.083Z,99080.97
2024-01-11T09:20:33.361Z,99075.69
2024-01-11T09:21:36.657Z,99076.13
2024-01-11T09:22:39.945Z,99076.88
2024-01-11T09:23:43.330Z,99071.37
2024-01-11T09:24:46.499Z,99071.53
2024-01-11T09:25:49.592Z,99080.53
2024-01-11T09:26:52.773Z,99075.22
2024-01-11T09:27:55.967Z,99079.37
2024-01-11T09:28:59.227Z,99072.94
2024-01-11T09:30:02.693Z,99069.81
2024-01-11T09:31:05.665Z,99066.13
2024-01-11T09:32:08.622Z,99067.53
2024-01-11T09:33:11.750Z,99060.41
2024-01-11T09:34:15.187Z,99060.97
2024-01-11T09:35:18.749Z,99057.25
2024-01-11T09:36:21.919Z,99052.41
2024-01-11T09:37:25.293Z,99045.75
2024-01-11T09:38:28.489Z,99045.47
2024-01-11T09:39:31.769Z,99042.25
2024-01-11T09:40:35.017Z,99035.75
2024-01-11T09:41:39.431Z,99025.97
2024-01-11T09:42:43.590Z,99028.84
2024-01-11T09:43:50.638Z,99027.91
2024-01-11T09:44:55.846Z,99014.53
2024-01-11T09:45:58.956Z,99014.91
2024-01-11T09:47:04.146Z,99019.41
2024-01-11T09:48:09.258Z,99018.06
2024-01-11T09:49:13.245Z,99014.12
2024-01-11T09:50:20.755Z,99003.78
2024-01-11T09:51:24.093Z,99005.34
2024-01-11T09:52:27.708Z,99005.16
2024-01-11T09:53:33.974Z,99003.16
2024-01-11T09:54:39.054Z,99009.41
2024-01-11T09:55:42.084Z,99001.59
2024-01-11T09:56:45.699Z,98997.66
2024-01-11T09:57:49.851Z,98997.66
2024-01-11T09:58:52.921Z,98988.59
2024-01-11T09:59:58.349Z,98984.97
2024-01-11T10:01:01.623Z,98991.03
2024-01-11T10:02:05.311Z,98981.72
2024-01-11T10:03:08.951Z,98983.78
2024-01-11T10:04:14.879Z,98977.78
2024-01-11T10:05:19.296Z,98983.88
2024-01-11T10:06:25.283Z,98979.63
2024-01-11T10:07:31.956Z,98980.94
2024-01-11T10:08:35.447Z,98980.06
2024-01-11T10:09:39.151Z,98975.44
2024-01-11T10:10:43.228Z,98982.53
2024-01-11T10:11:47.428Z,98976.56
2024-01-11T10:12:50.747Z,98981.53
2024-01-11T10:13:59.277Z,98977.88
2024-01-11T10:15:11.372Z,98971.84
2024-01-11T10:16:16.795Z,98973.25
2024-01-11T10:17:23.019Z,98967.06
2024-01-11T10:18:28.777Z,98961.69
2024-01-11T10:19:32.556Z,98977.19
2024-01-11T10:20:35.858Z,98964.25
2024-01-11T10:21:40.817Z,98956.13
2024-01-11T10:22:44.097Z,98957.97
2024-01-11T10:23:47.471Z,98952.66
2024-01-11T10:24:50.394Z,98949.16
2024-01-11T10:25:53.305Z,98954.69
2024-01-11T10:27:02.554Z,98956.97
2024-01-11T10:28:08.464Z,98957.59
2024-01-11T10:29:14.464Z,98953.94
2024-01-11T10:30:19.051Z,98949.63
2024-01-11T10:31:28.904Z,98956.91
2024-01-11T10:32:35.960Z,98961.38
2024-01-11T10:33:39.267Z,98961.25
2024-01-11T10:34:43.145Z,98965.22
2024-01-11T10:35:46.134Z,98960.56
2024-01-11T10:36:49.897Z,98959.13
2024-01-11T10:37:56.098Z,98960.47
2024-01-11T10:39:02.899Z,98952.88
2024-01-11T10:40:14.254Z,98961.41
2024-01-11T10:41:21.568Z,98957.84
2024-01-11T10:42:26.279Z,98957.72
2024-01-11T10:43:32.114Z,98951.72
2024-01-11T10:44:36.977Z,98953.00
2024-01-11T10:45:40.462Z,98954.38
2024-01-11T10:46:47.040Z,98953.50
2024-01-11T10:47:57.257Z,98945.69
2024-01-11T10:49:03.576Z,98944.13
2024-01-11T10:50:09.744Z,98945.03
2024-01-11T10:51:16.317Z,98939.53
2024-01-11T10:52:27.886Z,98942.75
2024-01-11T10:53:48.534Z,98940.69
2024-01-11T10:54:52.189Z,98941.16
2024-01-11T10:55:57.624Z,98938.84
2024-01-11T10:57:01.827Z,98943.88
2024-01-11T10:58:06.246Z,98942.56
2024-01-11T10:59:09.665Z,98928.41
2024-01-11T11:00:14.020Z,98927.09
2024-01-11T11:01:18.022Z,98919.28
2024-01-11T11:02:23.892Z,98915.91
2024-01-11T11:03:28.026Z,98913.00
2024-01-11T11:04:34.351Z,98904.94
2024-01-11T11:05:38.754Z,98898.69
2024-01-11T11:06:44.641Z,98902.31
2024-01-11T11:07:53.198Z,98902.56
2024-01-11T11:08:57.082Z,98902.22
2024-01-11T11:10:00.975Z,98897.06
2024-01-11T11:11:07.589Z,98902.56
2024-01-11T11:12:12.589Z,98894.91
2024-01-11T11:13:19.739Z,98897.56
2024-01-11T11:14:24.156Z,98896.81
2024-01-11T11:15:29.010Z,98894.38
2024-01-11T11:16:32.770Z,98888.34
2024-01-11T11:17:36.823Z,98883.09
2024-01-11T11:18:39.950Z,98891.31
2024-01-11T11:19:43.907Z,98890.28
2024-01-11T11:20:47.377Z,98895.25
2024-01-11T11:21:52.179Z,98890.06
2024-01-11T11:23:06.398Z,98891.81
2024-01-11T11:24:10.322Z,98893.06
2024-01-11T11:25:27.238Z,98894.44
2024-01-11T11:26:34.818Z,98887.97
2024-01-11T11:27:38.769Z,98887.66
2024-01-11T11:28:42.213Z,98882.44
2024-01-11T11:29:49.610Z,98883.63
2024-01-11T11:30:54.620Z,98882.47
2024-01-11T11:31:58.520Z,98888.66
2024-01-11T11:33:26.448Z,98885.84
2024-01-11T11:34:53.800Z,98869.72
2024-01-11T11:35:59.871Z,98870.53
2024-01-11T11:37:02.999Z,98866.97
2024-01-11T11:38:07.107Z,98863.50
2024-01-11T11:39:14.747Z,98859.13
2024-01-11T11:40:18.161Z,98854.88
2024-01-11T11:41:22.386Z,98850.81
2024-01-11T11:42:25.918Z,98850.94
2024-01-11T11:43:29.874Z,98843.34
2024-01-11T11:44:33.790Z,98855.75
2024-01-11T11:45:38.335Z,98850.03
2024-01-11T11:46:41.670Z,98850.53
2024-01-11T11:47:47.433Z,98858.50
2024-01-11T11:48:54.124Z,98858.75
2024-01-11T11:50:13.120Z,98862.72
2024-01-11T11:51:23.110Z,98861.69
2024-01-11T11:52:27.771Z,98866.75
2024-01-11T11:53:37.679Z,98857.78
2024-01-11T11:54:41.030Z,98866.25
2024-01-11T11:55:44.483Z,98859.19
2024-01-11T11:56:48.500Z,98857.91
2024-01-11T11:57:52.811Z,98851.34
2024-01-11T11:58:56.872Z,98850.53
2024-01-11T12:00:00.805Z,98850.44
2024-01-11T12:01:05.511Z,98843.91
2024-01-11T12:02:17.866Z,98840.28
2024-01-11T12:03:20.752Z,98827.56
2024-01-11T12:04:24.429Z,98834.37
2024-01-11T12:05:27.826Z,98843.50
2024-01-11T12:06:31.205Z,98840.63
2024-01-11T12:07:34.593Z,98841.97
2024-01-11T12:08:38.836Z,98838.34
2024-01-11T12:09:42.412Z,98834.25
2024-01-11T12:10:45.287Z,98827.53
2024-01-11T12:11:57.746Z,98826.38
2024-01-11T12:13:05.671Z,98818.56
2024-01-11T12:14:09.500Z,98812.59
2024-01-11T12:15:12.781Z,98812.78
2024-01-11T12:16:16.149Z,98814.47
2024-01-11T12:17:19.357Z,98810.50
2024-01-11T12:18:22.770Z,98801.88
2024-01-11T12:19:26.847Z,98818.63
2024-01-11T12:20:30.674Z,98816.16
2024-01-11T12:21:33.686Z,98809.91
2024-01-11T12:22:36.806Z,98808.69
2024-01-11T12:23:41.399Z,98814.44
2024-01-11T12:24:44.913Z,98805.06
2024-01-11T12:25:48.637Z,98809.97
2024-01-11T12:26:59.181Z,98821.03
2024-01-11T12:28:02.317Z,98813.00
2024-01-11T12:29:05.547Z,98812.22
2024-01-11T12:30:12.435Z,98803.06
2024-01-11T12:31:17.834Z,98800.41
2024-01-11T12:32:20.803Z,98798.06
2024-01-11T12:33:24.040Z,98803.91